createdAt,value
2022-11-05T00:00:45.520Z,41.20
2022-11-05T00:06:05.786Z,41.30
2022-11-05T00:11:25.953Z,41.20
2022-11-05T00:16:46.100Z,41.30
2022-11-05T00:22:06.134Z,41.30
2022-11-05T00:27:27.225Z,41.20
2022-11-05T00:32:47.367Z,41.20
2022-11-05T00:38:07.466Z,41.30
2022-11-05T00:43:27.631Z,41.20
2022-11-05T00:48:47.860Z,41.20
2022-11-05T00:54:08.182Z,41.20
2022-11-05T00:59:28.242Z,41.20
2022-11-05T01:04:48.516Z,41.20
2022-11-05T01:10:08.538Z,41.20
2022-11-05T01:15:28.615Z,41.20
2022-11-05T01:20:48.810Z,41.20
2022-11-05T01:26:09.107Z,41.20
2022-11-05T01:31:29.276Z,41.20
2022-11-05T01:36:49.436Z,41.20
2022-11-05T01:42:09.534Z,41.20
2022-11-05T01:47:29.667Z,41.20
2022-11-05T01:52:49.770Z,41.20
2022-11-05T01:58:09.848Z,41.20
2022-11-05T02:03:29.954Z,41.20
2022-11-05T02:08:50.197Z,41.20
2022-11-05T02:14:10.320Z,41.20
2022-11-05T02:19:30.414Z,41.20
2022-11-05T02:24:50.427Z,41.20
2022-11-05T02:30:10.590Z,41.20
2022-11-05T02:35:30.625Z,41.20
2022-11-05T02:40:50.737Z,41.20
2022-11-05T02:46:10.722Z,41.20
2022-11-05T02:51:30.912Z,41.20
2022-11-05T02:56:50.951Z,41.20
2022-11-05T03:02:11.346Z,41.20
2022-11-05T03:07:31.356Z,41.20
2022-11-05T03:12:51.518Z,41.20
2022-11-05T03:18:11.600Z,41.20
2022-11-05T03:23:31.776Z,41.20
2022-11-05T03:28:51.819Z,41.20
2022-11-05T03:34:12.013Z,41.10
2022-11-05T03:39:32.142Z,41.10
2022-11-05T03:44:52.446Z,41.10
2022-11-05T03:50:12.448Z,41.20
2022-11-05T03:55:32.625Z,41.10
2022-11-05T04:00:52.696Z,41.10
2022-11-05T04:06:14.016Z,41.10
2022-11-05T04:11:33.975Z,41.20
2022-11-05T04:16:54.158Z,41.00
2022-11-05T04:22:14.222Z,41.10
2022-11-05T04:27:34.407Z,41.00
2022-11-05T04:32:54.549Z,41.10
2022-11-05T04:38:14.722Z,41.10
2022-11-05T04:43:34.854Z,41.00
2022-11-05T04:48:55.091Z,41.00
2022-11-05T04:54:15.116Z,41.00
2022-11-05T04:59:35.352Z,41.00
2022-11-05T05:04:55.483Z,41.00
2022-11-05T05:10:15.778Z,41.00
2022-11-05T05:15:35.842Z,41.00
2022-11-05T05:20:56.003Z,41.00
2022-11-05T05:26:16.193Z,41.00
2022-11-05T05:31:36.311Z,41.00
2022-11-05T05:36:56.406Z,41.00
2022-11-05T05:42:16.747Z,41.00
2022-11-05T05:47:36.788Z,41.00
2022-11-05T05:52:56.881Z,41.00
2022-11-05T05:58:17.025Z,41.00
2022-11-05T06:03:37.194Z,41.00
2022-11-05T06:08:57.421Z,41.00
2022-11-05T06:14:17.506Z,41.00
2022-11-05T06:19:37.547Z,41.00
2022-11-05T06:24:57.642Z,40.90
2022-11-05T06:30:17.718Z,41.00
2022-11-05T06:35:37.907Z,40.90
2022-11-05T06:40:58.051Z,40.90
2022-11-05T06:46:18.246Z,41.00
2022-11-05T06:51:38.353Z,41.00
2022-11-05T06:56:58.461Z,40.90
2022-11-05T07:02:18.773Z,41.00
2022-11-05T07:07:38.816Z,40.90
2022-11-05T07:13:02.383Z,40.90
2022-11-05T07:18:25.253Z,40.90
2022-11-05T07:23:45.430Z,40.90
2022-11-05T07:29:05.611Z,40.90
2022-11-05T07:34:25.718Z,40.90
2022-11-05T07:39:45.887Z,40.90
2022-11-05T07:45:06.019Z,40.90
2022-11-05T07:50:26.313Z,40.90
2022-11-05T07:55:46.348Z,40.90
2022-11-05T08:01:06.661Z,40.90
2022-11-05T08:06:26.616Z,40.90
2022-11-05T08:11:46.795Z,40.90
2022-11-05T08:17:06.857Z,40.90
2022-11-05T08:22:27.069Z,40.90
2022-11-05T08:27:47.150Z,40.90
2022-11-05T08:33:07.268Z,40.90
2022-11-05T08:38:27.420Z,40.90
2022-11-05T08:43:47.557Z,40.90
2022-11-05T08:49:07.706Z,40.90
2022-11-05T08:54:27.854Z,40.90
2022-11-05T08:59:47.977Z,40.90
2022-11-05T09:05:08.151Z,40.90
2022-11-05T09:10:28.583Z,40.90
2022-11-05T09:15:48.757Z,40.90
2022-11-05T09:21:11.891Z,40.90
2022-11-05T09:26:32.216Z,40.80
2022-11-05T09:31:52.377Z,40.90
2022-11-05T09:37:12.621Z,40.90
2022-11-05T09:42:32.786Z,40.90
2022-11-05T09:47:52.973Z,40.90
2022-11-05T09:53:13.277Z,40.90
2022-11-05T09:58:33.735Z,40.90
2022-11-05T10:03:55.009Z,40.90
2022-11-05T10:09:14.913Z,40.90
2022-11-05T10:14:34.932Z,40.90
2022-11-05T10:19:55.082Z,40.90
2022-11-05T10:25:15.214Z,40.80
2022-11-05T10:30:35.379Z,40.60
2022-11-05T10:35:55.536Z,40.50
2022-11-05T10:41:15.766Z,40.50
2022-11-05T10:46:35.854Z,40.50
2022-11-05T10:51:56.055Z,40.40
2022-11-05T10:57:16.177Z,40.60
2022-11-05T11:02:36.428Z,40.60
2022-11-05T11:07:56.603Z,40.50
2022-11-05T11:13:16.830Z,40.50
2022-11-05T11:18:40.013Z,40.50
2022-11-05T11:24:00.736Z,40.50
2022-11-05T11:29:20.716Z,40.50
2022-11-05T11:34:40.906Z,40.50
2022-11-05T11:40:01.115Z,40.50
2022-11-05T11:45:21.213Z,40.50
2022-11-05T11:50:41.173Z,40.50
2022-11-05T11:56:01.405Z,40.50
2022-11-05T12:01:21.716Z,40.60
2022-11-05T12:06:41.827Z,40.60
2022-11-05T12:12:01.922Z,40.50
2022-11-05T12:17:22.128Z,40.60
2022-11-05T12:22:42.129Z,40.60
2022-11-05T12:28:02.243Z,40.60
2022-11-05T12:33:22.330Z,40.60
2022-11-05T12:38:42.609Z,40.60
2022-11-05T12:44:02.727Z,40.60
2022-11-05T12:49:22.807Z,40.60
2022-11-05T12:54:42.933Z,40.50
2022-11-05T13:00:03.221Z,40.50
2022-11-05T13:05:23.397Z,40.50
2022-11-05T13:10:43.740Z,40.50
2022-11-05T13:16:03.831Z,40.60
2022-11-05T13:21:24.136Z,40.60
2022-11-05T13:26:44.188Z,40.60
2022-11-05T13:32:04.409Z,40.60
2022-11-05T13:37:24.570Z,40.60
2022-11-05T13:42:44.851Z,40.60
2022-11-05T13:48:04.912Z,40.60
2022-11-05T13:53:25.088Z,40.60
2022-11-05T13:58:45.132Z,40.60
2022-11-05T14:04:05.320Z,40.60
2022-11-05T14:09:25.324Z,40.60
2022-11-05T14:14:45.637Z,40.60
2022-11-05T14:20:05.869Z,41.50
2022-11-05T14:25:26.085Z,41.30
2022-11-05T14:30:46.197Z,41.00
2022-11-05T14:36:06.391Z,40.90
2022-11-05T14:41:26.638Z,41.00
2022-11-05T14:46:47.128Z,40.90
2022-11-05T14:52:07.221Z,40.80
2022-11-05T14:57:27.439Z,40.80
2022-11-05T15:02:47.617Z,40.80
2022-11-05T15:08:07.707Z,40.80
2022-11-05T15:13:27.954Z,40.80
2022-11-05T15:18:48.189Z,40.70
2022-11-05T15:24:08.392Z,40.70
2022-11-05T15:29:28.378Z,40.70
2022-11-05T15:34:48.590Z,40.70
2022-11-05T15:40:08.743Z,40.70
2022-11-05T15:45:28.968Z,40.70
2022-11-05T15:50:49.045Z,40.70
2022-11-05T15:56:11.392Z,40.70
2022-11-05T16:01:31.509Z,40.70
2022-11-05T16:06:51.505Z,40.70
2022-11-05T16:12:11.639Z,40.70
2022-11-05T16:17:31.652Z,40.70
2022-11-05T16:22:51.714Z,40.70
2022-11-05T16:28:11.999Z,40.70
2022-11-05T16:33:31.916Z,40.70
2022-11-05T16:38:52.079Z,40.70
2022-11-05T16:44:12.277Z,40.70
2022-11-05T16:49:32.486Z,40.70
2022-11-05T16:54:52.664Z,40.70
2022-11-05T17:00:12.903Z,40.80
2022-11-05T17:05:32.995Z,40.60
2022-11-05T17:10:53.191Z,40.70
2022-11-05T17:16:13.266Z,40.70
2022-11-05T17:21:33.437Z,40.60
2022-11-05T17:26:53.447Z,40.70
2022-11-05T17:32:13.709Z,40.70
2022-11-05T17:37:33.944Z,40.60
2022-11-05T17:42:54.057Z,40.60
2022-11-05T17:48:14.574Z,40.60
2022-11-05T17:53:34.806Z,40.60
2022-11-05T17:58:54.958Z,40.60
2022-11-05T18:04:18.570Z,40.80
2022-11-05T18:09:38.834Z,41.00
2022-11-05T18:14:59.143Z,41.00
2022-11-05T18:20:19.758Z,40.90
2022-11-05T18:25:40.229Z,41.00
2022-11-05T18:31:00.456Z,40.90
2022-11-05T18:36:21.448Z,41.00
2022-11-05T18:41:41.622Z,41.10
2022-11-05T18:47:01.715Z,41.20
2022-11-05T18:52:22.063Z,41.20
2022-11-05T18:57:42.146Z,41.30
2022-11-05T19:03:02.420Z,41.40
2022-11-05T19:08:22.455Z,41.20
2022-11-05T19:13:42.653Z,41.20
2022-11-05T19:19:02.828Z,41.00
2022-11-05T19:24:23.037Z,41.20
2022-11-05T19:29:43.218Z,41.00
2022-11-05T19:35:03.431Z,41.00
2022-11-05T19:40:23.585Z,41.00
2022-11-05T19:45:45.245Z,40.90
2022-11-05T19:51:05.475Z,40.90
2022-11-05T19:56:25.635Z,40.80
2022-11-05T20:01:46.013Z,40.80
2022-11-05T20:07:06.126Z,40.70
2022-11-05T20:12:26.208Z,40.70
2022-11-05T20:17:46.691Z,40.70
2022-11-05T20:23:06.693Z,40.60
2022-11-05T20:28:26.873Z,40.70
2022-11-05T20:33:46.970Z,40.70
2022-11-05T20:39:07.157Z,40.70
2022-11-05T20:44:27.345Z,40.60
2022-11-05T20:49:47.622Z,40.60
2022-11-05T20:55:07.674Z,40.60
2022-11-05T21:00:27.909Z,40.50
2022-11-05T21:05:48.145Z,40.40
2022-11-05T21:11:08.030Z,40.30
2022-11-05T21:16:28.172Z,40.20
2022-11-05T21:21:48.456Z,40.10
2022-11-05T21:27:08.562Z,39.90
2022-11-05T21:32:28.732Z,39.90
2022-11-05T21:37:48.843Z,39.90
2022-11-05T21:43:08.947Z,39.50
2022-11-05T21:48:29.260Z,39.60
2022-11-05T21:53:51.441Z,39.40
2022-11-05T21:59:11.622Z,39.60
2022-11-05T22:04:31.718Z,39.80
2022-11-05T22:09:51.969Z,39.80
2022-11-05T22:15:12.089Z,40.00
2022-11-05T22:20:32.110Z,40.00
2022-11-05T22:25:52.374Z,40.10
2022-11-05T22:31:12.575Z,40.10
2022-11-05T22:36:32.833Z,40.10
2022-11-05T22:41:53.087Z,40.10
2022-11-05T22:47:13.332Z,40.10
2022-11-05T22:52:33.406Z,40.10
2022-11-05T22:57:53.633Z,40.10
2022-11-05T23:03:13.822Z,40.20
2022-11-05T23:08:33.851Z,40.20
2022-11-05T23:13:54.016Z,40.20
2022-11-05T23:19:14.105Z,40.20
2022-11-05T23:24:34.145Z,40.20
2022-11-05T23:29:54.152Z,40.20
2022-11-05T23:35:14.237Z,40.20
2022-11-05T23:40:34.371Z,40.20
2022-11-05T23:45:54.407Z,40.20
2022-11-05T23:51:14.586Z,40.20
2022-11-05T23:56:34.806Z,40.20
